TAP1PA EGLL-LPPT
Flight info
| Callsign | TAP1PA |
|---|---|
| Flight time | N/A |
| Altitude | 38000 |
| Route | GASGU N866 SAM M195 LORKU DCT POZOF DCT BALDA DCT ABUPI DCT XAMAX |
| Aircraft | A320/M-SDE3FGHIRWY/LB1 |
Departure
| Time | 2026-05-07 20:21 |
|---|---|
| Airport | London Heathrow Airport (EGLL) |
Arrival
| Time | N/A |
|---|---|
| Airport | Lisbon Humberto Delgado Airport (LPPT) |
| Time | Latitude | Longitude | Altitude | Speed | Heading |
|---|---|---|---|---|---|
| 2026-05-07 20:02 | 51.47187 | -0.48599 | 86 ft | 0 kts | 269° |
| 2026-05-07 20:11 | 51.47187 | -0.48565 | 88 ft | 4 kts | 272° |
| 2026-05-07 20:12 | 51.47186 | -0.48522 | 86 ft | 4 kts | 270° |
| 2026-05-07 20:12 | 51.47189 | -0.48482 | 87 ft | 4 kts | 232° |
| 2026-05-07 20:12 | 51.47196 | -0.48472 | 91 ft | 0 kts | 180° |
| 2026-05-07 20:14 | 51.47178 | -0.48472 | 86 ft | 7 kts | 180° |
| 2026-05-07 20:14 | 51.47103 | -0.48472 | 88 ft | 14 kts | 180° |
| 2026-05-07 20:15 | 51.46995 | -0.48471 | 88 ft | 16 kts | 179° |
| 2026-05-07 20:15 | 51.46880 | -0.48470 | 87 ft | 13 kts | 179° |
| 2026-05-07 20:15 | 51.46831 | -0.48469 | 86 ft | 0 kts | 180° |
| 2026-05-07 20:17 | 51.46829 | -0.48469 | 86 ft | 1 kts | 180° |
| 2026-05-07 20:17 | 51.46816 | -0.48469 | 86 ft | 5 kts | 180° |
| 2026-05-07 20:17 | 51.46756 | -0.48486 | 86 ft | 10 kts | 216° |
| 2026-05-07 20:17 | 51.46742 | -0.48581 | 86 ft | 11 kts | 271° |
| 2026-05-07 20:18 | 51.46725 | -0.48728 | 87 ft | 13 kts | 225° |
| 2026-05-07 20:18 | 51.46644 | -0.48750 | 86 ft | 9 kts | 184° |
| 2026-05-07 20:18 | 51.46631 | -0.48753 | 87 ft | 3 kts | 189° |
| 2026-05-07 20:19 | 51.46600 | -0.48767 | 90 ft | 0 kts | 197° |
| 2026-05-07 20:20 | 51.46536 | -0.48785 | 88 ft | 14 kts | 176° |
| 2026-05-07 20:20 | 51.46477 | -0.48670 | 87 ft | 15 kts | 92° |
| 2026-05-07 20:20 | 51.46477 | -0.48400 | 87 ft | 44 kts | 90° |
| 2026-05-07 20:21 | 51.46480 | -0.47516 | 85 ft | 112 kts | 89° |
| 2026-05-07 20:21 | 51.46486 | -0.45970 | 128 ft | 159 kts | 91° |
| 2026-05-07 20:21 | 51.46499 | -0.44250 | 852 ft | 153 kts | 91° |
| 2026-05-07 20:21 | 51.46515 | -0.42536 | 1563 ft | 154 kts | 94° |
| 2026-05-07 20:22 | 51.46211 | -0.40924 | 2181 ft | 152 kts | 125° |
| 2026-05-07 20:22 | 51.45603 | -0.39534 | 2805 ft | 153 kts | 125° |
| 2026-05-07 20:22 | 51.44988 | -0.38138 | 3409 ft | 154 kts | 124° |
| 2026-05-07 20:22 | 51.44370 | -0.36735 | 3995 ft | 154 kts | 124° |
| 2026-05-07 20:23 | 51.43743 | -0.35334 | 4572 ft | 156 kts | 129° |
| 2026-05-07 20:23 | 51.42926 | -0.34090 | 4970 ft | 173 kts | 143° |
| 2026-05-07 20:23 | 51.41789 | -0.33149 | 5243 ft | 196 kts | 160° |
| 2026-05-07 20:23 | 51.40364 | -0.32782 | 5510 ft | 221 kts | 180° |
| 2026-05-07 20:24 | 51.38787 | -0.33279 | 5824 ft | 245 kts | 202° |
| 2026-05-07 20:24 | 51.37290 | -0.34829 | 6000 ft | 267 kts | 221° |
| 2026-05-07 20:24 | 51.35907 | -0.36849 | 6005 ft | 270 kts | 222° |
| 2026-05-07 20:24 | 51.34525 | -0.38880 | 6006 ft | 271 kts | 222° |
| 2026-05-07 20:25 | 51.33135 | -0.40916 | 6006 ft | 271 kts | 222° |
| 2026-05-07 20:25 | 51.31739 | -0.42954 | 6003 ft | 272 kts | 222° |
| 2026-05-07 20:25 | 51.30527 | -0.45256 | 6003 ft | 272 kts | 241° |
| 2026-05-07 20:25 | 51.29885 | -0.48093 | 6008 ft | 272 kts | 255° |
| 2026-05-07 20:26 | 51.29374 | -0.51003 | 6007 ft | 272 kts | 254° |
| 2026-05-07 20:26 | 51.28851 | -0.53911 | 6009 ft | 273 kts | 254° |
| 2026-05-07 20:26 | 51.28320 | -0.56842 | 6694 ft | 275 kts | 254° |
| 2026-05-07 20:26 | 51.27776 | -0.59754 | 7730 ft | 273 kts | 253° |
| 2026-05-07 20:27 | 51.27216 | -0.62656 | 8726 ft | 274 kts | 253° |
| 2026-05-07 20:27 | 51.26647 | -0.65557 | 9716 ft | 274 kts | 253° |
| 2026-05-07 20:27 | 51.26089 | -0.68389 | 10391 ft | 285 kts | 252° |
| 2026-05-07 20:27 | 51.25473 | -0.71531 | 10676 ft | 308 kts | 252° |
| 2026-05-07 20:28 | 51.24814 | -0.74903 | 11027 ft | 326 kts | 252° |
| 2026-05-07 20:28 | 51.24131 | -0.78406 | 11687 ft | 334 kts | 252° |
| 2026-05-07 20:28 | 51.23434 | -0.81970 | 12412 ft | 339 kts | 252° |
| 2026-05-07 20:28 | 51.22723 | -0.85584 | 13150 ft | 344 kts | 251° |
| 2026-05-07 20:29 | 51.21998 | -0.89250 | 13872 ft | 349 kts | 251° |
| 2026-05-07 20:29 | 51.21218 | -0.92932 | 14506 ft | 352 kts | 246° |
| 2026-05-07 20:29 | 51.20052 | -0.96381 | 15156 ft | 354 kts | 235° |
| 2026-05-07 20:29 | 51.18469 | -0.99399 | 15832 ft | 357 kts | 224° |
| 2026-05-07 20:30 | 51.16675 | -1.02154 | 16501 ft | 360 kts | 224° |
| 2026-05-07 20:30 | 51.14869 | -1.04930 | 17167 ft | 363 kts | 224° |
| 2026-05-07 20:30 | 51.13044 | -1.07734 | 17819 ft | 366 kts | 224° |
| 2026-05-07 20:30 | 51.11228 | -1.10523 | 18452 ft | 369 kts | 224° |
| 2026-05-07 20:31 | 51.09373 | -1.13365 | 19029 ft | 372 kts | 224° |
| 2026-05-07 20:31 | 51.07497 | -1.16233 | 19621 ft | 375 kts | 224° |
| 2026-05-07 20:31 | 51.05611 | -1.19114 | 20199 ft | 378 kts | 224° |
| 2026-05-07 20:31 | 51.03704 | -1.22025 | 20789 ft | 381 kts | 224° |
| 2026-05-07 20:32 | 51.01791 | -1.24951 | 21361 ft | 384 kts | 224° |
| 2026-05-07 20:32 | 50.99862 | -1.27900 | 21913 ft | 387 kts | 224° |
| 2026-05-07 20:32 | 50.97914 | -1.30870 | 22459 ft | 389 kts | 224° |
| 2026-05-07 20:32 | 50.95937 | -1.33832 | 22982 ft | 392 kts | 220° |
| 2026-05-07 20:33 | 50.93730 | -1.36397 | 23487 ft | 395 kts | 213° |
| 2026-05-07 20:33 | 50.91419 | -1.38794 | 23934 ft | 398 kts | 213° |
| 2026-05-07 20:33 | 50.89097 | -1.41204 | 24362 ft | 400 kts | 213° |
| 2026-05-07 20:33 | 50.86763 | -1.43631 | 24758 ft | 403 kts | 213° |
| 2026-05-07 20:34 | 50.84416 | -1.46069 | 25155 ft | 404 kts | 213° |
| 2026-05-07 20:34 | 50.82059 | -1.48514 | 25552 ft | 406 kts | 213° |
| 2026-05-07 20:34 | 50.79688 | -1.50970 | 25928 ft | 408 kts | 213° |
| 2026-05-07 20:34 | 50.77303 | -1.53442 | 26293 ft | 411 kts | 213° |
| 2026-05-07 20:35 | 50.74912 | -1.55920 | 26667 ft | 413 kts | 213° |
| 2026-05-07 20:35 | 50.72503 | -1.58414 | 27034 ft | 415 kts | 213° |
| 2026-05-07 20:35 | 50.70085 | -1.60913 | 27391 ft | 417 kts | 213° |
| 2026-05-07 20:35 | 50.67655 | -1.63420 | 27740 ft | 419 kts | 213° |
| 2026-05-07 20:36 | 50.65207 | -1.65941 | 28081 ft | 421 kts | 213° |
| 2026-05-07 20:36 | 50.62752 | -1.68464 | 28408 ft | 423 kts | 213° |
| 2026-05-07 20:36 | 50.60284 | -1.70995 | 28739 ft | 424 kts | 213° |
| 2026-05-07 20:36 | 50.57801 | -1.73534 | 29053 ft | 426 kts | 213° |
| 2026-05-07 20:37 | 50.55311 | -1.76078 | 29347 ft | 428 kts | 213° |
| 2026-05-07 20:37 | 50.52808 | -1.78633 | 29632 ft | 430 kts | 213° |
| 2026-05-07 20:37 | 50.50295 | -1.81196 | 29913 ft | 432 kts | 213° |
| 2026-05-07 20:37 | 50.47772 | -1.83771 | 30160 ft | 434 kts | 213° |
| 2026-05-07 20:38 | 50.45239 | -1.86354 | 30400 ft | 434 kts | 213° |
| 2026-05-07 20:38 | 50.42711 | -1.88929 | 30730 ft | 433 kts | 213° |
| 2026-05-07 20:38 | 50.40188 | -1.91491 | 31046 ft | 431 kts | 213° |
| 2026-05-07 20:38 | 50.37678 | -1.94040 | 31371 ft | 430 kts | 213° |
| 2026-05-07 20:39 | 50.35170 | -1.96584 | 31693 ft | 429 kts | 213° |
| 2026-05-07 20:39 | 50.32673 | -1.99115 | 32005 ft | 428 kts | 213° |
| 2026-05-07 20:39 | 50.30174 | -2.01643 | 32318 ft | 427 kts | 213° |
| 2026-05-07 20:39 | 50.27683 | -2.04156 | 32637 ft | 426 kts | 213° |
| 2026-05-07 20:40 | 50.25198 | -2.06659 | 32953 ft | 425 kts | 213° |
| 2026-05-07 20:40 | 50.22713 | -2.09147 | 33269 ft | 424 kts | 212° |
| 2026-05-07 20:40 | 50.20223 | -2.11594 | 33583 ft | 423 kts | 212° |
| 2026-05-07 20:40 | 50.17727 | -2.14018 | 33905 ft | 422 kts | 212° |
| 2026-05-07 20:41 | 50.15233 | -2.16427 | 34184 ft | 421 kts | 212° |
| 2026-05-07 20:41 | 50.12742 | -2.18830 | 34420 ft | 421 kts | 212° |
| 2026-05-07 20:41 | 50.10251 | -2.21234 | 34647 ft | 422 kts | 212° |
| 2026-05-07 20:41 | 50.07755 | -2.23647 | 34866 ft | 422 kts | 212° |
| 2026-05-07 20:42 | 50.05262 | -2.26058 | 35075 ft | 423 kts | 212° |
| 2026-05-07 20:42 | 50.02761 | -2.28480 | 35293 ft | 423 kts | 212° |
| 2026-05-07 20:42 | 50.00292 | -2.30871 | 35483 ft | 424 kts | 212° |
| 2026-05-07 20:42 | 49.97781 | -2.33293 | 35676 ft | 425 kts | 212° |
| 2026-05-07 20:43 | 49.95266 | -2.35718 | 35868 ft | 426 kts | 212° |
| 2026-05-07 20:43 | 49.92667 | -2.37926 | 36042 ft | 427 kts | 205° |
| 2026-05-07 20:43 | 49.89958 | -2.39818 | 36222 ft | 428 kts | 205° |
| 2026-05-07 20:43 | 49.87243 | -2.41713 | 36402 ft | 428 kts | 205° |
| 2026-05-07 20:44 | 49.84526 | -2.43610 | 36573 ft | 429 kts | 205° |
| 2026-05-07 20:44 | 49.81808 | -2.45511 | 36746 ft | 429 kts | 205° |
| 2026-05-07 20:44 | 49.79082 | -2.47416 | 36913 ft | 430 kts | 205° |
| 2026-05-07 20:44 | 49.76357 | -2.49316 | 37075 ft | 430 kts | 205° |
| 2026-05-07 20:45 | 49.73625 | -2.51217 | 37241 ft | 431 kts | 205° |
| 2026-05-07 20:45 | 49.70890 | -2.53116 | 37383 ft | 431 kts | 206° |
| 2026-05-07 20:45 | 49.68149 | -2.55014 | 37520 ft | 432 kts | 206° |
| 2026-05-07 20:45 | 49.65405 | -2.56911 | 37658 ft | 433 kts | 206° |
| 2026-05-07 20:46 | 49.62655 | -2.58812 | 37799 ft | 434 kts | 206° |
| 2026-05-07 20:46 | 49.59904 | -2.60713 | 37971 ft | 433 kts | 206° |
| 2026-05-07 20:46 | 49.57147 | -2.62616 | 38031 ft | 435 kts | 206° |
| 2026-05-07 20:47 | 49.51619 | -2.66422 | 38030 ft | 435 kts | 206° |
| 2026-05-07 20:47 | 49.46087 | -2.70229 | 38030 ft | 436 kts | 206° |
| 2026-05-07 20:48 | 49.40542 | -2.74029 | 38028 ft | 436 kts | 206° |
| 2026-05-07 20:48 | 49.34996 | -2.77822 | 38028 ft | 436 kts | 206° |
| 2026-05-07 20:49 | 49.29448 | -2.81600 | 38027 ft | 436 kts | 205° |
| 2026-05-07 20:49 | 49.23899 | -2.85371 | 38009 ft | 436 kts | 206° |
| 2026-05-07 20:50 | 49.18354 | -2.89136 | 38015 ft | 436 kts | 205° |
| 2026-05-07 20:50 | 49.12801 | -2.92899 | 38021 ft | 436 kts | 206° |
| 2026-05-07 20:51 | 49.07248 | -2.96656 | 38027 ft | 437 kts | 205° |
| 2026-05-07 20:51 | 49.01724 | -3.00374 | 38014 ft | 437 kts | 205° |
| 2026-05-07 20:52 | 48.96115 | -3.04130 | 38026 ft | 437 kts | 205° |
| 2026-05-07 20:52 | 48.90541 | -3.07864 | 38038 ft | 438 kts | 206° |
| 2026-05-07 20:53 | 48.85012 | -3.11581 | 38036 ft | 438 kts | 206° |
| 2026-05-07 20:53 | 48.79442 | -3.15306 | 38036 ft | 437 kts | 205° |
| 2026-05-07 20:54 | 48.73867 | -3.19016 | 38038 ft | 438 kts | 205° |
| 2026-05-07 20:54 | 48.68286 | -3.22708 | 38039 ft | 438 kts | 205° |
| 2026-05-07 20:55 | 48.62701 | -3.26395 | 38042 ft | 438 kts | 205° |
| 2026-05-07 20:55 | 48.57120 | -3.30092 | 38025 ft | 438 kts | 205° |
| 2026-05-07 20:56 | 48.51536 | -3.33776 | 38023 ft | 438 kts | 205° |
| 2026-05-07 20:56 | 48.45950 | -3.37450 | 38027 ft | 438 kts | 205° |
| 2026-05-07 20:57 | 48.40362 | -3.41113 | 38028 ft | 438 kts | 205° |
| 2026-05-07 20:57 | 48.34771 | -3.44765 | 38023 ft | 438 kts | 206° |
| 2026-05-07 20:58 | 48.29186 | -3.48423 | 38025 ft | 437 kts | 206° |
| 2026-05-07 20:58 | 48.24550 | -3.51442 | 38023 ft | 437 kts | 206° |
| 2026-05-07 20:59 | 48.18967 | -3.55068 | 38023 ft | 437 kts | 205° |
| 2026-05-07 20:59 | 48.13386 | -3.58686 | 38011 ft | 437 kts | 206° |
| 2026-05-07 21:00 | 48.06900 | -3.62892 | 38012 ft | 437 kts | 206° |
| 2026-05-07 21:00 | 48.02227 | -3.65910 | 38015 ft | 437 kts | 205° |
| 2026-05-07 21:01 | 47.96638 | -3.69493 | 38016 ft | 437 kts | 205° |
| 2026-05-07 21:01 | 47.91052 | -3.73076 | 38012 ft | 437 kts | 205° |
| 2026-05-07 21:02 | 47.85494 | -3.76639 | 38021 ft | 438 kts | 205° |
| 2026-05-07 21:02 | 47.79894 | -3.80220 | 38025 ft | 438 kts | 205° |
| 2026-05-07 21:03 | 47.74292 | -3.83791 | 38029 ft | 438 kts | 205° |
| 2026-05-07 21:03 | 47.68697 | -3.87350 | 38023 ft | 437 kts | 205° |
| 2026-05-07 21:04 | 47.63101 | -3.90901 | 38020 ft | 437 kts | 205° |
| 2026-05-07 21:04 | 47.57504 | -3.94444 | 38022 ft | 437 kts | 205° |
| 2026-05-07 21:05 | 47.51916 | -3.97982 | 38000 ft | 437 kts | 205° |
| 2026-05-07 21:05 | 47.46327 | -4.01502 | 38009 ft | 437 kts | 205° |
| 2026-05-07 21:06 | 47.40738 | -4.05020 | 38010 ft | 436 kts | 205° |
| 2026-05-07 21:06 | 47.35148 | -4.08525 | 38010 ft | 436 kts | 205° |
| 2026-05-07 21:07 | 47.29555 | -4.12016 | 38000 ft | 437 kts | 205° |
| 2026-05-07 21:07 | 47.23965 | -4.15511 | 38010 ft | 437 kts | 205° |
| 2026-05-07 21:08 | 47.18367 | -4.19004 | 38010 ft | 437 kts | 205° |
| 2026-05-07 21:08 | 47.12768 | -4.22485 | 38015 ft | 437 kts | 205° |
| 2026-05-07 21:09 | 47.07169 | -4.25953 | 38009 ft | 437 kts | 205° |
| 2026-05-07 21:09 | 47.01519 | -4.29275 | 38011 ft | 438 kts | 203° |
| 2026-05-07 21:10 | 46.95798 | -4.32354 | 38011 ft | 438 kts | 202° |
| 2026-05-07 21:10 | 46.90101 | -4.35377 | 38015 ft | 438 kts | 202° |
| 2026-05-07 21:11 | 46.84382 | -4.38481 | 38004 ft | 438 kts | 203° |
| 2026-05-07 21:11 | 46.75816 | -4.43191 | 38017 ft | 439 kts | 203° |
| 2026-05-07 21:12 | 46.70102 | -4.46297 | 38015 ft | 438 kts | 203° |
| 2026-05-07 21:12 | 46.64385 | -4.49392 | 38008 ft | 438 kts | 203° |
| 2026-05-07 21:13 | 46.58666 | -4.52483 | 38007 ft | 438 kts | 203° |
| 2026-05-07 21:13 | 46.52951 | -4.55556 | 38007 ft | 438 kts | 203° |
| 2026-05-07 21:14 | 46.47230 | -4.58636 | 37999 ft | 438 kts | 203° |
| 2026-05-07 21:14 | 46.41513 | -4.61713 | 38005 ft | 439 kts | 203° |
| 2026-05-07 21:15 | 46.35788 | -4.64780 | 38001 ft | 439 kts | 203° |
| 2026-05-07 21:15 | 46.30058 | -4.67839 | 38006 ft | 439 kts | 203° |
| 2026-05-07 21:16 | 46.24332 | -4.70897 | 37982 ft | 439 kts | 203° |
| 2026-05-07 21:16 | 46.18601 | -4.73944 | 37992 ft | 439 kts | 203° |
| 2026-05-07 21:17 | 46.12870 | -4.76983 | 37988 ft | 439 kts | 203° |
| 2026-05-07 21:17 | 46.07175 | -4.80008 | 37981 ft | 439 kts | 203° |
| 2026-05-07 21:18 | 46.01443 | -4.83041 | 37968 ft | 439 kts | 203° |
| 2026-05-07 21:18 | 45.95700 | -4.86079 | 37966 ft | 440 kts | 203° |
| 2026-05-07 21:19 | 45.89953 | -4.89112 | 37962 ft | 440 kts | 203° |
| 2026-05-07 21:19 | 45.84193 | -4.92129 | 37955 ft | 441 kts | 203° |
| 2026-05-07 21:20 | 45.78429 | -4.95149 | 37958 ft | 441 kts | 203° |
| 2026-05-07 21:20 | 45.72656 | -4.98166 | 37961 ft | 442 kts | 203° |
| 2026-05-07 21:21 | 45.66877 | -5.01174 | 37967 ft | 442 kts | 203° |
| 2026-05-07 21:21 | 45.61095 | -5.04184 | 37959 ft | 442 kts | 203° |
| 2026-05-07 21:22 | 45.55312 | -5.07198 | 37966 ft | 443 kts | 204° |
| 2026-05-07 21:22 | 45.49527 | -5.10200 | 37965 ft | 443 kts | 204° |
| 2026-05-07 21:23 | 45.43731 | -5.13195 | 37953 ft | 443 kts | 203° |
| 2026-05-07 21:23 | 45.37940 | -5.16171 | 37961 ft | 443 kts | 204° |
| 2026-05-07 21:24 | 45.32148 | -5.19160 | 37961 ft | 443 kts | 204° |
| 2026-05-07 21:24 | 45.26391 | -5.22122 | 37940 ft | 443 kts | 204° |
| 2026-05-07 21:25 | 45.20591 | -5.25084 | 37951 ft | 443 kts | 203° |
| 2026-05-07 21:25 | 45.14794 | -5.28051 | 37949 ft | 443 kts | 204° |
| 2026-05-07 21:26 | 45.08999 | -5.31021 | 37956 ft | 443 kts | 204° |
| 2026-05-07 21:26 | 45.03200 | -5.33987 | 37953 ft | 443 kts | 204° |
| 2026-05-07 21:27 | 44.97394 | -5.36937 | 37952 ft | 444 kts | 203° |
| 2026-05-07 21:27 | 44.91584 | -5.39883 | 37953 ft | 444 kts | 203° |
| 2026-05-07 21:28 | 44.85771 | -5.42814 | 37936 ft | 444 kts | 204° |
| 2026-05-07 21:28 | 44.79964 | -5.45746 | 37942 ft | 443 kts | 204° |
| 2026-05-07 21:29 | 44.74165 | -5.48679 | 37944 ft | 443 kts | 204° |
| 2026-05-07 21:29 | 44.68361 | -5.51597 | 37944 ft | 443 kts | 203° |
| 2026-05-07 21:30 | 44.62557 | -5.54503 | 37940 ft | 443 kts | 204° |